Alys Beach, FL

6:46 PM CDT on September 01, 2015 (GMT -0500)
Nelda Sansouci | | Change Station
CLOSE
Current Station
Personal Weather Station
Location: Panama City Beach, FL
Elevation: 39 ft
Nearby Weather Stations

Elev 39 ft 30.24 °N, 85.91 °W | Updated 4 minutes ago

Mostly Cloudy
Mostly Cloudy
86.2 °F
Feels Like 97 °F
N
4.7
Wind Variable Wind from SW
Gusts 5.8 mph

Today
High -- | Low -- °F
--% Chance of Precip.
Yesterday
High -- | Low -- °F
Precip. -- in
6:20 AM 7:06 PM
Waning Gibbous, 85% visible
Pressure 30.03 in
Visibility 10.0 miles
Clouds Scattered Clouds 7500 ft
Heat Index 97 °F
Dew Point 76 °F
Humidity 73%
Rainfall 0.00 in
Snow Depth Not available.
UV 1 out of 12
Pollen 6.50 out of 12
Air Quality Not available.
Flu Activity Not available.
METAR KECP 012253Z AUTO 20008KT 10SM SCT075 31/23 A3000 RMK AO2 SLP168 T03060228
Pressure 30.03 in
Visibility 10.0 miles
Clouds Scattered Clouds 7500 ft
Heat Index 97 °F
Dew Point 76 °F
Humidity 73%
Rainfall 0.00 in
Snow Depth Not available.
UV 1 out of 12
Pollen 6.50 out of 12
Air Quality Not available.
Flu Activity Not available.
METAR KECP 012253Z AUTO 20008KT 10SM SCT075 31/23 A3000 RMK AO2 SLP168 T03060228

10-Day Weather Forecast

×

Almanac

Astronomy

Sep. 01, 2015 Rise Set
Actual Time
Civil Twilight
Nautical Twilight
Astronomical Twilight
Moon
Length of Visible Light
Length of Day
Tomorrow will be .
, % of the Moon is Illuminated

Today's Extremes

State Highs State Lows

Community

WunderPhotos

Upload Photos

1,851,643 photos uploaded!

WunderBlogs® & News

Nearby

Air Quality

  Air Quality AQ Index Pollutant
Not available.

Snow Depth

Station Depth Elevation

Earthquake Activity

City Distance Mag. Time & Date
Minimum magnitude displayed is 2.5.

Coastal Water Temperatures

Place Temperature

Stations

Nearby Weather Stations

Station Location Temp. Windchill Dew Point Humidity Wind Precip. Elev Updated Type